sensor_id;sensor_type;location;lat;lon;timestamp;temperature;humidity
24638;DHT22;12773;50.162;8.548;2022-10-04T00:02:27;8.70;99.90
24638;DHT22;12773;50.162;8.548;2022-10-04T00:05:17;8.60;99.90
24638;DHT22;12773;50.162;8.548;2022-10-04T00:08:32;8.50;99.90
24638;DHT22;12773;50.162;8.548;2022-10-04T00:11:06;8.60;99.90
24638;DHT22;12773;50.162;8.548;2022-10-04T00:14:00;8.70;99.90
24638;DHT22;12773;50.162;8.548;2022-10-04T00:16:48;8.70;99.90
24638;DHT22;12773;50.162;8.548;2022-10-04T00:19:44;8.60;99.90
24638;DHT22;12773;50.162;8.548;2022-10-04T00:22:33;8.50;99.90
24638;DHT22;12773;50.162;8.548;2022-10-04T00:25:32;8.50;99.90
24638;DHT22;12773;50.162;8.548;2022-10-04T00:31:26;8.60;99.90
24638;DHT22;12773;50.162;8.548;2022-10-04T00:37:13;8.60;99.90
24638;DHT22;12773;50.162;8.548;2022-10-04T00:40:08;8.70;99.90
24638;DHT22;12773;50.162;8.548;2022-10-04T00:42:57;8.60;99.90
24638;DHT22;12773;50.162;8.548;2022-10-04T00:45:44;8.50;99.90
24638;DHT22;12773;50.162;8.548;2022-10-04T00:48:57;8.30;99.90
24638;DHT22;12773;50.162;8.548;2022-10-04T00:52:29;8.10;99.90
24638;DHT22;12773;50.162;8.548;2022-10-04T00:54:43;7.90;99.90
24638;DHT22;12773;50.162;8.548;2022-10-04T00:57:39;8.00;99.90
24638;DHT22;12773;50.162;8.548;2022-10-04T01:00:29;8.00;99.90
24638;DHT22;12773;50.162;8.548;2022-10-04T01:03:22;8.00;99.90
24638;DHT22;12773;50.162;8.548;2022-10-04T01:06:10;8.00;99.90
24638;DHT22;12773;50.162;8.548;2022-10-04T01:09:01;8.10;99.90
24638;DHT22;12773;50.162;8.548;2022-10-04T01:11:55;8.20;99.90
24638;DHT22;12773;50.162;8.548;2022-10-04T01:14:52;8.10;99.90
24638;DHT22;12773;50.162;8.548;2022-10-04T01:17:34;8.00;99.90
24638;DHT22;12773;50.162;8.548;2022-10-04T01:20:31;7.90;99.90
24638;DHT22;12773;50.162;8.548;2022-10-04T01:26:38;7.90;99.90
24638;DHT22;12773;50.162;8.548;2022-10-04T01:29:27;7.90;99.90
24638;DHT22;12773;50.162;8.548;2022-10-04T01:32:15;7.90;99.90
24638;DHT22;12773;50.162;8.548;2022-10-04T01:35:03;8.00;99.90
24638;DHT22;12773;50.162;8.548;2022-10-04T01:37:50;7.90;99.90
24638;DHT22;12773;50.162;8.548;2022-10-04T01:40:47;7.90;99.90
24638;DHT22;12773;50.162;8.548;2022-10-04T01:43:36;8.00;99.90
24638;DHT22;12773;50.162;8.548;2022-10-04T01:46:26;8.00;99.90
24638;DHT22;12773;50.162;8.548;2022-10-04T01:49:17;8.00;99.90
24638;DHT22;12773;50.162;8.548;2022-10-04T01:52:07;7.90;99.90
24638;DHT22;12773;50.162;8.548;2022-10-04T01:55:27;7.80;99.90
24638;DHT22;12773;50.162;8.548;2022-10-04T01:57:56;7.80;99.90
24638;DHT22;12773;50.162;8.548;2022-10-04T02:00:49;7.80;99.90
24638;DHT22;12773;50.162;8.548;2022-10-04T02:03:39;7.90;99.90
24638;DHT22;12773;50.162;8.548;2022-10-04T02:06:29;7.90;99.90
24638;DHT22;12773;50.162;8.548;2022-10-04T02:12:25;8.10;99.90
24638;DHT22;12773;50.162;8.548;2022-10-04T02:15:14;8.10;99.90
24638;DHT22;12773;50.162;8.548;2022-10-04T02:18:02;8.20;99.90
24638;DHT22;12773;50.162;8.548;2022-10-04T02:20:52;8.20;99.90
24638;DHT22;12773;50.162;8.548;2022-10-04T02:23:40;8.20;99.90
24638;DHT22;12773;50.162;8.548;2022-10-04T02:26:28;8.40;99.90
24638;DHT22;12773;50.162;8.548;2022-10-04T02:29:22;8.50;99.90
24638;DHT22;12773;50.162;8.548;2022-10-04T02:32:07;8.70;99.90
24638;DHT22;12773;50.162;8.548;2022-10-04T02:35:13;8.90;99.90
24638;DHT22;12773;50.162;8.548;2022-10-04T02:38:13;8.90;99.90
24638;DHT22;12773;50.162;8.548;2022-10-04T02:41:10;9.00;99.90
24638;DHT22;12773;50.162;8.548;2022-10-04T02:44:02;9.00;99.90
24638;DHT22;12773;50.162;8.548;2022-10-04T02:46:51;9.10;99.90
24638;DHT22;12773;50.162;8.548;2022-10-04T02:49:45;9.10;99.90
24638;DHT22;12773;50.162;8.548;2022-10-04T02:52:41;9.20;99.90
24638;DHT22;12773;50.162;8.548;2022-10-04T02:55:29;9.10;99.90
24638;DHT22;12773;50.162;8.548;2022-10-04T02:58:18;9.10;99.90
24638;DHT22;12773;50.162;8.548;2022-10-04T03:01:06;9.10;99.90
24638;DHT22;12773;50.162;8.548;2022-10-04T03:03:56;9.10;99.90
24638;DHT22;12773;50.162;8.548;2022-10-04T03:06:44;9.10;99.90
24638;DHT22;12773;50.162;8.548;2022-10-04T03:09:32;9.00;99.90
24638;DHT22;12773;50.162;8.548;2022-10-04T03:12:21;9.00;99.90
24638;DHT22;12773;50.162;8.548;2022-10-04T03:15:09;9.00;99.90
24638;DHT22;12773;50.162;8.548;2022-10-04T03:17:59;9.00;99.90
24638;DHT22;12773;50.162;8.548;2022-10-04T03:20:46;9.00;99.90
24638;DHT22;12773;50.162;8.548;2022-10-04T03:23:34;9.00;99.90
24638;DHT22;12773;50.162;8.548;2022-10-04T03:26:37;9.00;99.90
24638;DHT22;12773;50.162;8.548;2022-10-04T03:29:26;8.90;99.90
24638;DHT22;12773;50.162;8.548;2022-10-04T03:32:16;8.80;99.90
24638;DHT22;12773;50.162;8.548;2022-10-04T03:35:06;8.70;99.90
24638;DHT22;12773;50.162;8.548;2022-10-04T03:37:55;8.70;99.90
24638;DHT22;12773;50.162;8.548;2022-10-04T03:40:55;8.50;99.90
24638;DHT22;12773;50.162;8.548;2022-10-04T03:43:48;8.40;99.90
24638;DHT22;12773;50.162;8.548;2022-10-04T03:59:54;8.40;99.90
24638;DHT22;12773;50.162;8.548;2022-10-04T04:02:54;8.70;99.90
24638;DHT22;12773;50.162;8.548;2022-10-04T04:05:42;8.80;99.90
24638;DHT22;12773;50.162;8.548;2022-10-04T04:08:51;8.80;99.90
24638;DHT22;12773;50.162;8.548;2022-10-04T04:11:39;8.90;99.90
24638;DHT22;12773;50.162;8.548;2022-10-04T04:14:29;8.90;99.90
24638;DHT22;12773;50.162;8.548;2022-10-04T04:20:31;8.90;99.90
24638;DHT22;12773;50.162;8.548;2022-10-04T04:23:27;8.70;99.90
24638;DHT22;12773;50.162;8.548;2022-10-04T04:26:38;8.50;99.90
24638;DHT22;12773;50.162;8.548;2022-10-04T04:29:32;8.30;99.90
24638;DHT22;12773;50.162;8.548;2022-10-04T04:32:23;8.40;99.90
24638;DHT22;12773;50.162;8.548;2022-10-04T04:38:23;8.20;99.90
24638;DHT22;12773;50.162;8.548;2022-10-04T04:41:11;8.30;99.90
24638;DHT22;12773;50.162;8.548;2022-10-04T04:43:59;8.30;99.90
24638;DHT22;12773;50.162;8.548;2022-10-04T04:46:47;8.40;99.90
24638;DHT22;12773;50.162;8.548;2022-10-04T04:49:36;8.60;99.90
24638;DHT22;12773;50.162;8.548;2022-10-04T04:52:27;8.60;99.90
24638;DHT22;12773;50.162;8.548;2022-10-04T04:55:21;8.70;99.90
24638;DHT22;12773;50.162;8.548;2022-10-04T04:58:13;8.60;99.90
24638;DHT22;12773;50.162;8.548;2022-10-04T05:01:02;8.50;99.90
24638;DHT22;12773;50.162;8.548;2022-10-04T05:04:01;8.60;99.90
24638;DHT22;12773;50.162;8.548;2022-10-04T05:07:03;8.70;99.90
24638;DHT22;12773;50.162;8.548;2022-10-04T05:09:51;8.80;99.90
24638;DHT22;12773;50.162;8.548;2022-10-04T05:12:38;8.70;99.90
24638;DHT22;12773;50.162;8.548;2022-10-04T05:15:30;8.60;99.90
24638;DHT22;12773;50.162;8.548;2022-10-04T05:18:27;8.60;99.90
24638;DHT22;12773;50.162;8.548;2022-10-04T05:21:19;8.70;99.90
24638;DHT22;12773;50.162;8.548;2022-10-04T05:24:24;8.80;99.90
24638;DHT22;12773;50.162;8.548;2022-10-04T05:27:27;8.90;99.90
24638;DHT22;12773;50.162;8.548;2022-10-04T05:30:22;8.90;99.90
24638;DHT22;12773;50.162;8.548;2022-10-04T05:38:58;8.90;99.90
24638;DHT22;12773;50.162;8.548;2022-10-04T05:44:56;9.20;99.90
24638;DHT22;12773;50.162;8.548;2022-10-04T05:47:46;9.20;99.90
24638;DHT22;12773;50.162;8.548;2022-10-04T05:50:40;9.10;99.90
24638;DHT22;12773;50.162;8.548;2022-10-04T05:53:32;9.10;99.90
24638;DHT22;12773;50.162;8.548;2022-10-04T05:59:37;9.30;99.90
24638;DHT22;12773;50.162;8.548;2022-10-04T06:08:36;9.60;99.90
24638;DHT22;12773;50.162;8.548;2022-10-04T06:17:46;9.90;99.90
24638;DHT22;12773;50.162;8.548;2022-10-04T06:20:46;10.00;99.90
24638;DHT22;12773;50.162;8.548;2022-10-04T06:23:33;10.10;99.90
24638;DHT22;12773;50.162;8.548;2022-10-04T06:26:40;10.10;99.90
24638;DHT22;12773;50.162;8.548;2022-10-04T06:29:28;10.20;99.90
24638;DHT22;12773;50.162;8.548;2022-10-04T06:35:31;10.40;99.90
24638;DHT22;12773;50.162;8.548;2022-10-04T06:38:30;10.50;99.90
24638;DHT22;12773;50.162;8.548;2022-10-04T06:41:23;10.60;99.90
24638;DHT22;12773;50.162;8.548;2022-10-04T06:44:21;10.70;99.90
24638;DHT22;12773;50.162;8.548;2022-10-04T06:47:14;10.80;99.90
24638;DHT22;12773;50.162;8.548;2022-10-04T06:50:12;10.90;99.90
24638;DHT22;12773;50.162;8.548;2022-10-04T07:02:46;11.30;99.90
24638;DHT22;12773;50.162;8.548;2022-10-04T07:05:47;11.30;99.90
24638;DHT22;12773;50.162;8.548;2022-10-04T07:08:46;11.40;99.90
24638;DHT22;12773;50.162;8.548;2022-10-04T07:14:38;11.50;99.90
24638;DHT22;12773;50.162;8.548;2022-10-04T07:17:36;11.50;99.90
24638;DHT22;12773;50.162;8.548;2022-10-04T07:20:25;11.60;99.90
24638;DHT22;12773;50.162;8.548;2022-10-04T07:23:24;11.60;99.90
24638;DHT22;12773;50.162;8.548;2022-10-04T07:29:34;11.70;99.90
24638;DHT22;12773;50.162;8.548;2022-10-04T07:32:43;11.80;99.90
24638;DHT22;12773;50.162;8.548;2022-10-04T07:35:37;12.00;99.90
24638;DHT22;12773;50.162;8.548;2022-10-04T07:38:28;12.10;99.90
24638;DHT22;12773;50.162;8.548;2022-10-04T07:41:38;12.30;99.90
24638;DHT22;12773;50.162;8.548;2022-10-04T07:44:44;12.50;99.90
24638;DHT22;12773;50.162;8.548;2022-10-04T07:47:32;12.60;99.90
24638;DHT22;12773;50.162;8.548;2022-10-04T07:50:36;12.70;99.90
24638;DHT22;12773;50.162;8.548;2022-10-04T07:53:50;12.80;99.90
24638;DHT22;12773;50.162;8.548;2022-10-04T07:56:29;12.80;99.90
24638;DHT22;12773;50.162;8.548;2022-10-04T08:05:20;13.10;99.90
24638;DHT22;12773;50.162;8.548;2022-10-04T08:08:33;13.20;99.90
24638;DHT22;12773;50.162;8.548;2022-10-04T08:24:17;13.40;99.90
24638;DHT22;12773;50.162;8.548;2022-10-04T08:33:51;14.00;99.90
24638;DHT22;12773;50.162;8.548;2022-10-04T08:36:59;14.30;99.90
24638;DHT22;12773;50.162;8.548;2022-10-04T08:40:15;14.40;99.90
24638;DHT22;12773;50.162;8.548;2022-10-04T08:49:58;15.00;99.90
24638;DHT22;12773;50.162;8.548;2022-10-04T08:56:08;15.30;99.90
24638;DHT22;12773;50.162;8.548;2022-10-04T09:00:03;15.30;99.90
24638;DHT22;12773;50.162;8.548;2022-10-04T09:14:49;15.90;99.90
24638;DHT22;12773;50.162;8.548;2022-10-04T09:17:54;15.80;99.90
24638;DHT22;12773;50.162;8.548;2022-10-04T09:21:03;15.80;99.90
24638;DHT22;12773;50.162;8.548;2022-10-04T09:27:30;16.10;99.90
24638;DHT22;12773;50.162;8.548;2022-10-04T09:30:51;16.10;99.90
24638;DHT22;12773;50.162;8.548;2022-10-04T09:33:59;16.30;99.90
24638;DHT22;12773;50.162;8.548;2022-10-04T09:37:11;16.80;99.90
24638;DHT22;12773;50.162;8.548;2022-10-04T09:54:06;17.50;99.90
24638;DHT22;12773;50.162;8.548;2022-10-04T10:03:56;18.20;99.90
24638;DHT22;12773;50.162;8.548;2022-10-04T10:06:50;18.60;99.90
24638;DHT22;12773;50.162;8.548;2022-10-04T10:20:39;19.00;99.90
24638;DHT22;12773;50.162;8.548;2022-10-04T10:26:56;18.70;99.90
24638;DHT22;12773;50.162;8.548;2022-10-04T10:49:52;19.20;99.90
24638;DHT22;12773;50.162;8.548;2022-10-04T10:52:53;19.50;99.90
24638;DHT22;12773;50.162;8.548;2022-10-04T11:32:40;21.60;99.90
24638;DHT22;12773;50.162;8.548;2022-10-04T11:35:42;21.80;99.90
24638;DHT22;12773;50.162;8.548;2022-10-04T11:38:50;22.10;99.90
24638;DHT22;12773;50.162;8.548;2022-10-04T11:42:05;21.80;99.90
24638;DHT22;12773;50.162;8.548;2022-10-04T12:08:02;22.70;99.90
24638;DHT22;12773;50.162;8.548;2022-10-04T12:14:48;22.20;99.90
24638;DHT22;12773;50.162;8.548;2022-10-04T12:31:42;21.90;99.90
24638;DHT22;12773;50.162;8.548;2022-10-04T12:54:10;21.70;99.90
24638;DHT22;12773;50.162;8.548;2022-10-04T13:00:14;21.60;99.90
24638;DHT22;12773;50.162;8.548;2022-10-04T13:15:40;21.40;99.90
24638;DHT22;12773;50.162;8.548;2022-10-04T13:18:52;21.40;99.90
24638;DHT22;12773;50.162;8.548;2022-10-04T13:21:50;21.50;99.90
24638;DHT22;12773;50.162;8.548;2022-10-04T13:25:10;21.40;99.90
24638;DHT22;12773;50.162;8.548;2022-10-04T13:30:59;21.70;99.90
24638;DHT22;12773;50.162;8.548;2022-10-04T13:40:41;21.60;99.90
24638;DHT22;12773;50.162;8.548;2022-10-04T13:50:31;21.60;99.90
24638;DHT22;12773;50.162;8.548;2022-10-04T13:56:45;21.50;99.90
24638;DHT22;12773;50.162;8.548;2022-10-04T13:59:46;21.40;99.90
24638;DHT22;12773;50.162;8.548;2022-10-04T14:02:57;21.60;99.90
24638;DHT22;12773;50.162;8.548;2022-10-04T14:22:23;21.90;99.90
24638;DHT22;12773;50.162;8.548;2022-10-04T14:35:16;21.00;99.90
24638;DHT22;12773;50.162;8.548;2022-10-04T14:51:32;21.10;99.90
24638;DHT22;12773;50.162;8.548;2022-10-04T15:05:24;21.20;99.90
24638;DHT22;12773;50.162;8.548;2022-10-04T15:08:35;21.10;99.90
24638;DHT22;12773;50.162;8.548;2022-10-04T15:21:03;20.80;99.90
24638;DHT22;12773;50.162;8.548;2022-10-04T15:24:42;20.80;99.90
24638;DHT22;12773;50.162;8.548;2022-10-04T15:27:16;20.80;99.90
24638;DHT22;12773;50.162;8.548;2022-10-04T15:33:16;21.00;99.90
24638;DHT22;12773;50.162;8.548;2022-10-04T15:42:51;20.40;99.90
24638;DHT22;12773;50.162;8.548;2022-10-04T15:48:54;20.40;99.90
24638;DHT22;12773;50.162;8.548;2022-10-04T15:52:11;20.40;99.90
24638;DHT22;12773;50.162;8.548;2022-10-04T16:05:16;21.00;99.90
24638;DHT22;12773;50.162;8.548;2022-10-04T16:08:35;20.60;99.90
24638;DHT22;12773;50.162;8.548;2022-10-04T16:11:34;20.50;99.90
24638;DHT22;12773;50.162;8.548;2022-10-04T16:21:09;20.00;99.90
24638;DHT22;12773;50.162;8.548;2022-10-04T16:33:36;19.30;99.90
24638;DHT22;12773;50.162;8.548;2022-10-04T16:46:37;18.30;99.90
24638;DHT22;12773;50.162;8.548;2022-10-04T16:49:47;18.20;99.90
24638;DHT22;12773;50.162;8.548;2022-10-04T16:55:55;17.90;99.90
24638;DHT22;12773;50.162;8.548;2022-10-04T16:58:56;17.80;99.90
24638;DHT22;12773;50.162;8.548;2022-10-04T17:09:04;16.70;99.90
24638;DHT22;12773;50.162;8.548;2022-10-04T17:19:39;15.80;99.90
24638;DHT22;12773;50.162;8.548;2022-10-04T17:42:25;14.20;99.90
24638;DHT22;12773;50.162;8.548;2022-10-04T17:52:00;14.00;99.90
24638;DHT22;12773;50.162;8.548;2022-10-04T17:55:21;13.90;99.90
24638;DHT22;12773;50.162;8.548;2022-10-04T17:58:10;14.00;99.90
24638;DHT22;12773;50.162;8.548;2022-10-04T18:01:16;14.00;99.90
24638;DHT22;12773;50.162;8.548;2022-10-04T18:09:58;13.70;99.90
24638;DHT22;12773;50.162;8.548;2022-10-04T18:26:32;13.10;99.90
24638;DHT22;12773;50.162;8.548;2022-10-04T18:30:30;13.00;99.90
24638;DHT22;12773;50.162;8.548;2022-10-04T18:39:50;12.80;99.90
24638;DHT22;12773;50.162;8.548;2022-10-04T18:46:40;12.60;99.90
24638;DHT22;12773;50.162;8.548;2022-10-04T18:49:42;12.60;99.90
24638;DHT22;12773;50.162;8.548;2022-10-04T18:52:56;12.70;99.90
24638;DHT22;12773;50.162;8.548;2022-10-04T18:56:18;12.60;99.90
24638;DHT22;12773;50.162;8.548;2022-10-04T18:58:58;12.50;99.90
24638;DHT22;12773;50.162;8.548;2022-10-04T19:02:11;12.50;99.90
24638;DHT22;12773;50.162;8.548;2022-10-04T19:08:03;12.40;99.90
24638;DHT22;12773;50.162;8.548;2022-10-04T19:10:57;12.30;99.90
24638;DHT22;12773;50.162;8.548;2022-10-04T19:20:55;12.40;99.90
24638;DHT22;12773;50.162;8.548;2022-10-04T19:27:19;12.30;99.90
24638;DHT22;12773;50.162;8.548;2022-10-04T19:30:27;12.30;99.90
24638;DHT22;12773;50.162;8.548;2022-10-04T19:34:02;12.30;99.90
24638;DHT22;12773;50.162;8.548;2022-10-04T19:42:30;12.10;99.90
24638;DHT22;12773;50.162;8.548;2022-10-04T19:48:42;12.10;99.90
24638;DHT22;12773;50.162;8.548;2022-10-04T19:51:31;12.10;99.90
24638;DHT22;12773;50.162;8.548;2022-10-04T19:54:25;12.10;99.90
24638;DHT22;12773;50.162;8.548;2022-10-04T19:57:13;12.10;99.90
24638;DHT22;12773;50.162;8.548;2022-10-04T20:00:09;12.10;99.90
24638;DHT22;12773;50.162;8.548;2022-10-04T20:02:53;12.00;99.90
24638;DHT22;12773;50.162;8.548;2022-10-04T20:05:52;12.00;99.90
24638;DHT22;12773;50.162;8.548;2022-10-04T20:19:47;11.80;99.90
24638;DHT22;12773;50.162;8.548;2022-10-04T20:22:57;11.70;99.90
24638;DHT22;12773;50.162;8.548;2022-10-04T20:26:43;11.70;99.90
24638;DHT22;12773;50.162;8.548;2022-10-04T20:30:00;11.60;99.90
24638;DHT22;12773;50.162;8.548;2022-10-04T20:32:53;11.60;99.90
24638;DHT22;12773;50.162;8.548;2022-10-04T20:39:01;11.50;99.90
24638;DHT22;12773;50.162;8.548;2022-10-04T20:42:06;11.50;99.90
24638;DHT22;12773;50.162;8.548;2022-10-04T20:47:59;11.40;99.90
24638;DHT22;12773;50.162;8.548;2022-10-04T20:50:49;11.40;99.90
24638;DHT22;12773;50.162;8.548;2022-10-04T20:53:44;11.40;99.90
24638;DHT22;12773;50.162;8.548;2022-10-04T20:56:31;11.40;99.90
24638;DHT22;12773;50.162;8.548;2022-10-04T20:59:21;11.40;99.90
24638;DHT22;12773;50.162;8.548;2022-10-04T21:02:14;11.30;99.90
24638;DHT22;12773;50.162;8.548;2022-10-04T21:05:22;11.30;99.90
24638;DHT22;12773;50.162;8.548;2022-10-04T21:08:25;11.20;99.90
24638;DHT22;12773;50.162;8.548;2022-10-04T21:14:04;11.10;99.90
24638;DHT22;12773;50.162;8.548;2022-10-04T21:16:53;11.00;99.90
24638;DHT22;12773;50.162;8.548;2022-10-04T21:19:43;11.00;99.90
24638;DHT22;12773;50.162;8.548;2022-10-04T21:22:32;11.00;99.90
24638;DHT22;12773;50.162;8.548;2022-10-04T21:25:28;11.00;99.90
24638;DHT22;12773;50.162;8.548;2022-10-04T21:28:33;11.10;99.90
24638;DHT22;12773;50.162;8.548;2022-10-04T21:31:21;11.20;99.90
24638;DHT22;12773;50.162;8.548;2022-10-04T21:34:08;11.30;99.90
24638;DHT22;12773;50.162;8.548;2022-10-04T21:36:56;11.30;99.90
24638;DHT22;12773;50.162;8.548;2022-10-04T21:39:44;11.30;99.90
24638;DHT22;12773;50.162;8.548;2022-10-04T21:42:31;11.10;99.90
24638;DHT22;12773;50.162;8.548;2022-10-04T21:45:20;10.90;99.90
24638;DHT22;12773;50.162;8.548;2022-10-04T21:48:07;10.70;99.90
24638;DHT22;12773;50.162;8.548;2022-10-04T21:50:54;10.70;99.90
24638;DHT22;12773;50.162;8.548;2022-10-04T21:53:42;10.70;99.90
24638;DHT22;12773;50.162;8.548;2022-10-04T21:56:29;10.70;99.90
24638;DHT22;12773;50.162;8.548;2022-10-04T21:59:16;10.60;99.90
24638;DHT22;12773;50.162;8.548;2022-10-04T22:02:06;10.70;99.90
24638;DHT22;12773;50.162;8.548;2022-10-04T22:04:53;10.60;99.90
24638;DHT22;12773;50.162;8.548;2022-10-04T22:07:41;10.50;99.90
24638;DHT22;12773;50.162;8.548;2022-10-04T22:10:28;10.40;99.90
24638;DHT22;12773;50.162;8.548;2022-10-04T22:13:16;10.40;99.90
24638;DHT22;12773;50.162;8.548;2022-10-04T22:16:03;10.50;99.90
24638;DHT22;12773;50.162;8.548;2022-10-04T22:18:51;10.60;99.90
24638;DHT22;12773;50.162;8.548;2022-10-04T22:21:38;10.60;99.90
24638;DHT22;12773;50.162;8.548;2022-10-04T22:24:25;10.60;99.90
24638;DHT22;12773;50.162;8.548;2022-10-04T22:27:18;10.60;99.90
24638;DHT22;12773;50.162;8.548;2022-10-04T22:30:09;10.50;99.90
24638;DHT22;12773;50.162;8.548;2022-10-04T22:33:00;10.40;99.90
24638;DHT22;12773;50.162;8.548;2022-10-04T22:35:48;10.20;99.90
24638;DHT22;12773;50.162;8.548;2022-10-04T22:38:35;10.10;99.90
24638;DHT22;12773;50.162;8.548;2022-10-04T22:41:25;10.10;99.90
24638;DHT22;12773;50.162;8.548;2022-10-04T22:44:18;10.20;99.90
24638;DHT22;12773;50.162;8.548;2022-10-04T22:47:12;10.20;99.90
24638;DHT22;12773;50.162;8.548;2022-10-04T22:49:59;10.20;99.90
24638;DHT22;12773;50.162;8.548;2022-10-04T22:52:46;10.10;99.90
24638;DHT22;12773;50.162;8.548;2022-10-04T22:55:34;10.10;99.90
24638;DHT22;12773;50.162;8.548;2022-10-04T22:58:21;10.10;99.90
24638;DHT22;12773;50.162;8.548;2022-10-04T23:01:15;10.10;99.90
24638;DHT22;12773;50.162;8.548;2022-10-04T23:04:03;10.10;99.90
24638;DHT22;12773;50.162;8.548;2022-10-04T23:06:52;10.10;99.90
24638;DHT22;12773;50.162;8.548;2022-10-04T23:09:39;10.10;99.90
24638;DHT22;12773;50.162;8.548;2022-10-04T23:12:26;10.00;99.90
24638;DHT22;12773;50.162;8.548;2022-10-04T23:15:17;10.10;99.90
24638;DHT22;12773;50.162;8.548;2022-10-04T23:18:10;10.10;99.90
24638;DHT22;12773;50.162;8.548;2022-10-04T23:20:58;10.10;99.90
24638;DHT22;12773;50.162;8.548;2022-10-04T23:23:47;10.00;99.90
24638;DHT22;12773;50.162;8.548;2022-10-04T23:26:36;10.00;99.90
24638;DHT22;12773;50.162;8.548;2022-10-04T23:29:26;9.80;99.90
24638;DHT22;12773;50.162;8.548;2022-10-04T23:32:16;9.80;99.90
24638;DHT22;12773;50.162;8.548;2022-10-04T23:35:05;9.70;99.90
24638;DHT22;12773;50.162;8.548;2022-10-04T23:37:54;9.70;99.90
24638;DHT22;12773;50.162;8.548;2022-10-04T23:40:41;9.80;99.90
24638;DHT22;12773;50.162;8.548;2022-10-04T23:43:30;9.60;99.90
24638;DHT22;12773;50.162;8.548;2022-10-04T23:46:19;9.60;99.90
24638;DHT22;12773;50.162;8.548;2022-10-04T23:49:17;9.60;99.90
24638;DHT22;12773;50.162;8.548;2022-10-04T23:52:46;9.70;99.90
24638;DHT22;12773;50.162;8.548;2022-10-04T23:55:23;9.80;99.90
24638;DHT22;12773;50.162;8.548;2022-10-04T23:58:19;9.90;99.90
